Liverpool, Texas
Current Conditions -  °F | °C
As of 9:14 AM on Friday 19 Dec 2014 (Local Time) from KLVJ Reporting Station
Light Rain Light Rain  
Wind Chill: 61°   Ceiling: 2900
Heat Index: 61°   Visibility: 7mi
Dew Point: 58°   Wind: 13mph
Humidity: 90%   Direction: 60°ENE
Pressure: 30.04"   Gusts: 25mph
Location:  29.29°N, 95.28°W
Report Text: KLVJ 191514Z AUTO 06011G22KT 7SM -RA BKN029 OVC085 16/14 A3004 RMK AO2 P0007 T01610144
Loading
Personal Weather Stations






























Interactive Weather Map New forecast layout! Learn more

10-Day Weather Forecast

Advertisements
Track Severe Weather on mobile